Главная страница
METAR-TAF:

METAR-TAF

Аэропорты :

Радом, Польша

широта: 51-23-21N, долгота: 21-12-49E, высота над уровнем моря: 186 м

Текущие метеонаблюдения

Эта сводка был подготовлена 3 часа и 43 минут назад, в 18:00 UTC
Ветер 3 Узел переменных направлений
Температура 24°C
Влажность 50%
Давление 1015 hPa
Видимость 10 км и более
Нет облачности ниже 1500 м, и нет кучево-дождевой облачности

METAR: EPRA 171800Z VRB03KT CAVOK 24/13 Q1015

Время: 23:43 (21:43 UTC)

Прогноз

Эта сводка был подготовлена 4 часа и 13 минут назад, в 17:30 UTC
Прогноз действительный с 17-го 18 UTC до 18-го 03 UTC
Ветер 4 Узел переменных направлений
Видимость 10 км и более
Нет облачности ниже 1500 м, и нет кучево-дождевой облачности

TAF: EPRA 171730Z 1718/1803 VRB04KT CAVOK

Метеонаблюдения и прогнозы для более 4000 аэропортов (сводки METAR и TAF).

Имеющиеся станции представлены на карте желтыми и красными точками.

Чтобы увидеть название станции, наведите на нее мышь.

Затем щелкните, чтобы увидеть метеонаблюдения и метеопрогнозы.

Управление картой: чтобы увеличить масштаб, щелкните зеленые кнопки с черным крестиком; чтобы уменьшить масштаб, щелкните зеленую кнопку с тире; для просмотра соседних карт щелкайте зеленые стрелки.


METAR-TAF: